Meteo Giornale » Osservazioni meteo Italia » Torino-Caselle

ore: 07:50 - Osservazioni Meteo Torino-Caselle
Lat. 45° 13' N Lon. 7° 39' E Alt. 301 metri s.l.m.

sereno Europe/Rome

15 °C

Sereno

Temp. 24 Ore

12 °C

21 °C

Ovest/Nord-Ovest

7.4 Km/h

Dew point 4 °C

Umidità 47 %

Visibilità  10 Km

Il sole sorge alle ore 06:32

Il sole tramonta alle ore 20:24

Data e Ora Cielo e Fenomeni T °C DP °C Um. % Pres. hPa Vis. km Vento km/h
Oggi h: 07:50 sereno Sereno 15 4 47 1022 10 O/NO 7.4
Oggi h: 07:20 sereno Sereno 15 4 47 1022 10 N/NO 7.4
Oggi h: 06:50 sereno Sereno 13 5 58 1022 10 N 7.4
Oggi h: 06:20 sereno Sereno 12 5 62 1023 10 N 7.4
Oggi h: 05:50 sereno Sereno 13 5 58 1023 10 N 3.7
Oggi h: 05:20 molto_nuvoloso Molto Nuvoloso 12 5 62 1023 10 N 1.8
Oggi h: 04:50 molto_nuvoloso Molto Nuvoloso 13 5 58 1023 10 N 5.5
Oggi h: 04:20 molto_nuvoloso Molto Nuvoloso 16 2 38 1023 10 NO 13
Oggi h: 03:50 nuvoloso Nuvoloso 15 2 41 1023 10 NO 14.8
Oggi h: 03:20 sereno Sereno 13 3 50 1024 10 N 3.7
Oggi h: 02:50 sereno Sereno 13 4 54 1024 10 N 1.8
Oggi h: 02:20 sereno Sereno 14 3 47 1024 10 NO 11.1
Oggi h: 01:50 sereno Sereno 15 3 44 1024 10 O/NO 9.3
Oggi h: 01:20 sereno Sereno 15 4 47 1025 10 O/NO 9.3
Oggi h: 00:50 sereno Sereno 15 3 44 1025 10 NO 9.3
Oggi h: 00:20 sereno Sereno 15 4 47 1025 10 O/NO 7.4
Ieri h: 23:50 nuvoloso Nuvoloso 14 4 50 1025 10 N 3.7
Ieri h: 23:20 sereno Sereno 13 5 58 1025 10 E 9.3
Ieri h: 22:50 sereno Sereno 16 3 41 1024 10 N/NO 7.4
Ieri h: 22:20 sereno Sereno 17 3 39 1024 10 N 5.5
Ieri h: 21:50 sereno Sereno 17 3 39 1024 10 O/NO 11.1
Ieri h: 21:20 sereno Sereno 17 4 41 1024 10 O/NO 11.1
Ieri h: 20:50 sereno Sereno 18 3 36 1024 10 O/NO 7.4
Ieri h: 20:20 sereno Sereno 20 2 30 1024 10 N 5.5
Ieri h: 19:50 sereno Sereno 20 1 28 1024 10 N 3.7
Ieri h: 19:20 sereno Sereno 19 3 34 1024 10 N 5.5
Ieri h: 18:50 sereno Sereno 19 7 45 1024 10 E/NE 9.3
Ieri h: 18:20 sereno Sereno 20 5 37 1024 10 E 11.1
Ieri h: 17:50 sereno Sereno 20 4 34 1024 10 E/NE 13
Ieri h: 17:20 sereno Sereno 21 3 30 1025 10 E 11.1
Ieri h: 16:50 sereno Sereno 21 3 30 1025 10 E 13
Ieri h: 16:20 sereno Sereno 21 4 32 1025 10 E 14.8
Ieri h: 15:20 poco_nuvoloso Poco Nuvoloso 20 4 34 1026 10 E 13
Ieri h: 14:50 poco_nuvoloso Poco Nuvoloso 20 1 28 1027 10 NE 11.1
Ieri h: 14:20 poco_nuvoloso Poco Nuvoloso 20 5 37 1027 10 E 11.1
Ieri h: 13:50 poco_nuvoloso Poco Nuvoloso 20 5 37 1027 10 SE 7.4
Ieri h: 13:20 poco_nuvoloso Poco Nuvoloso 20 7 42 1027 10 E 7.4
Ieri h: 12:50 sereno Sereno 19 5 39 1028 10 N 5.5
Ieri h: 12:20 sereno Sereno 19 8 48 1028 10 N 5.5
Ieri h: 11:50 sereno Sereno 18 7 48 1028 10 N 3.7
Ieri h: 11:20 sereno Sereno 17 6 48 1028 10 N 5.5
Ieri h: 10:50 sereno Sereno 17 7 51 1028 10 N 5.5
Ieri h: 10:20 sereno Sereno 17 6 48 1028 10 N 3.7
Ieri h: 09:50 sereno Sereno 16 6 51 1028 10 N 3.7
Ieri h: 09:20 sereno Sereno 16 5 47 1028 10 N 1.8
Ieri h: 08:50 sereno Sereno 14 5 54 1028 10 N 5.5